Time;durP1;ratioP1;P1;durP2;ratioP2;P2;SDS_P1;SDS_P2;PMS_P1;PMS_P2;Temp;Humidity;BMP_temperature;BMP_pressure;BME280_temperature;BME280_humidity;BME280_pressure;Samples;Min_cycle;Max_cycle;Signal;HPM_P1;HPM_P2
2023/01/21 00:01:09;;;;;;;49.50;26.70;;;;;;;-3.24;93.49;101794.81;107663;1253;72415;-76
2023/01/21 00:03:36;;;;;;;51.10;26.20;;;;;;;-3.25;93.60;101792.77;107669;1255;60878;-76
2023/01/21 00:06:07;;;;;;;44.00;24.00;;;;;;;-3.25;93.53;101794.67;107484;1256;60665;-75
2023/01/21 00:08:34;;;;;;;43.20;24.60;;;;;;;-3.26;93.44;101796.98;107625;1256;73630;-74
2023/01/21 00:11:14;;;;;;;44.00;23.50;;;;;;;-3.29;93.50;101796.73;107802;1253;72399;-76
2023/01/21 00:13:43;;;;;;;41.70;23.80;;;;;;;-3.33;93.24;101802.41;107669;1254;71569;-75
2023/01/21 00:16:10;;;;;;;41.30;23.90;;;;;;;-3.36;93.33;101804.79;107770;1253;60817;-76
2023/01/21 00:18:37;;;;;;;47.60;25.00;;;;;;;-3.39;93.34;101812.86;107507;1254;61185;-76
2023/01/21 00:21:05;;;;;;;41.20;22.90;;;;;;;-3.41;93.31;101810.86;107866;1253;73944;-75
2023/01/21 00:23:31;;;;;;;41.10;23.80;;;;;;;-3.44;93.34;101816.33;108013;1253;70574;-76
2023/01/21 00:26:00;;;;;;;44.70;23.70;;;;;;;-3.46;93.32;101823.65;107390;1254;74038;-75
2023/01/21 00:28:29;;;;;;;42.20;23.60;;;;;;;-3.48;93.32;101823.55;107407;1253;63058;-74
2023/01/21 00:31:01;;;;;;;41.90;23.60;;;;;;;-3.50;93.38;101826.04;107504;1258;61248;-75
2023/01/21 00:33:29;;;;;;;49.90;26.20;;;;;;;-3.52;93.40;101827.84;107627;1254;72485;-74
2023/01/21 00:36:03;;;;;;;48.30;25.40;;;;;;;-3.55;93.56;101832.80;107511;1253;71257;-76
2023/01/21 00:38:31;;;;;;;44.50;25.00;;;;;;;-3.58;93.47;101838.78;107766;1253;70078;-76
2023/01/21 00:41:02;;;;;;;44.60;25.30;;;;;;;-3.60;93.58;101842.84;107856;1260;62006;-76
2023/01/21 00:43:29;;;;;;;44.10;25.10;;;;;;;-3.63;93.68;101845.86;107612;1257;59160;-75
2023/01/21 00:45:56;;;;;;;47.50;25.60;;;;;;;-3.64;93.79;101844.20;107595;1255;72776;-76
2023/01/21 00:48:24;;;;;;;43.70;25.10;;;;;;;-3.63;93.84;101845.22;107485;1254;70541;-76
2023/01/21 00:51:00;;;;;;;44.70;24.80;;;;;;;-3.62;94.01;101851.71;107483;1254;71907;-76
2023/01/21 00:53:34;;;;;;;43.90;24.60;;;;;;;-3.61;94.10;101850.48;107524;1253;59838;-75
2023/01/21 00:56:03;;;;;;;43.40;23.90;;;;;;;-3.60;93.87;101850.96;107585;1254;60058;-76
2023/01/21 00:58:30;;;;;;;42.80;23.60;;;;;;;-3.61;93.74;101857.41;108558;1254;71971;-76
2023/01/21 01:01:10;;;;;;;44.50;24.50;;;;;;;-3.62;93.49;101857.62;108952;1258;71023;-76
2023/01/21 01:03:39;;;;;;;43.70;23.70;;;;;;;-3.65;93.44;101858.60;108992;1253;73828;-78
2023/01/21 01:06:14;;;;;;;46.50;23.90;;;;;;;-3.66;93.49;101861.92;108961;1254;60595;-78
2023/01/21 01:08:41;;;;;;;45.20;24.90;;;;;;;-3.67;93.62;101867.13;108736;1254;60075;-77
2023/01/21 01:11:09;;;;;;;44.80;23.60;;;;;;;-3.66;93.75;101870.55;108617;1254;73694;-77
2023/01/21 01:13:36;;;;;;;42.30;23.10;;;;;;;-3.66;93.64;101876.23;108582;1254;69738;-76
2023/01/21 01:16:04;;;;;;;44.80;24.50;;;;;;;-3.65;93.48;101879.19;107829;1254;71111;-75
2023/01/21 01:18:34;;;;;;;44.60;23.40;;;;;;;-3.66;93.42;101882.50;108143;1258;62012;-75
2023/01/21 01:21:02;;;;;;;44.40;23.70;;;;;;;-3.70;93.26;101882.76;107586;1259;60473;-76
2023/01/21 01:23:29;;;;;;;44.40;23.20;;;;;;;-3.70;93.35;101884.52;107903;1258;74127;-76
2023/01/21 01:26:01;;;;;;;46.80;24.40;;;;;;;-3.68;93.68;101890.14;107563;1260;71219;-75
2023/01/21 01:28:28;;;;;;;41.60;23.10;;;;;;;-3.65;93.64;101897.84;107641;1256;70519;-76
2023/01/21 01:30:55;;;;;;;43.20;23.40;;;;;;;-3.62;93.91;101901.20;107461;1254;62607;-75
2023/01/21 01:33:24;;;;;;;43.70;24.20;;;;;;;-3.57;93.97;101909.98;107561;1259;59133;-77
2023/01/21 01:35:51;;;;;;;45.50;23.80;;;;;;;-3.50;94.21;101915.96;108228;1254;73032;-75
2023/01/21 01:38:25;;;;;;;42.10;24.40;;;;;;;-3.42;94.43;101921.73;107620;1260;69837;-77
2023/01/21 01:40:53;;;;;;;41.90;23.50;;;;;;;-3.33;94.39;101920.70;107569;1258;73856;-76
2023/01/21 01:43:26;;;;;;;47.80;24.50;;;;;;;-3.24;94.32;101923.88;107839;1254;60398;-75
2023/01/21 01:45:53;;;;;;;46.10;24.30;;;;;;;-3.13;94.38;101927.98;107760;1257;59242;-76
2023/01/21 01:48:27;;;;;;;44.40;23.80;;;;;;;-3.03;94.62;101931.73;107455;1259;73754;-76
2023/01/21 01:51:02;;;;;;;46.80;25.10;;;;;;;-2.90;94.57;101939.92;107446;1254;70052;-76
2023/01/21 01:53:31;;;;;;;44.10;22.70;;;;;;;-2.78;94.75;101943.81;107622;1254;71158;-74
2023/01/21 01:55:59;;;;;;;43.10;22.50;;;;;;;-2.69;94.54;101947.10;107784;1254;61914;-75
2023/01/21 01:58:27;;;;;;;44.40;23.70;;;;;;;-2.60;94.41;101945.89;107554;1259;59132;-76
2023/01/21 02:00:54;;;;;;;42.90;23.80;;;;;;;-2.52;94.41;101950.59;107631;1254;73689;-76
2023/01/21 02:03:58;;;;;;;41.60;22.70;;;;;;;-2.41;94.58;101953.14;107676;1254;70044;-76
2023/01/21 02:06:16;;;;;;;42.40;23.50;;;;;;;-2.30;94.47;101955.42;107813;1255;72449;-76
2023/01/21 02:08:45;;;;;;;43.50;23.30;;;;;;;-2.19;94.57;101961.42;107597;1259;62282;-77
2023/01/21 02:11:15;;;;;;;45.20;22.20;;;;;;;-2.08;94.49;101962.72;107811;1258;59258;-76
2023/01/21 02:13:45;;;;;;;41.70;22.70;;;;;;;-1.98;94.34;101967.89;107445;1255;73481;-77
2023/01/21 02:16:18;;;;;;;41.70;23.50;;;;;;;-1.89;94.20;101971.12;107468;1253;71943;-76
2023/01/21 02:18:56;;;;;;;39.20;21.60;;;;;;;-1.78;94.26;101975.21;107561;1257;72754;-75
2023/01/21 02:21:42;;;;;;;41.80;21.60;;;;;;;-1.70;94.06;101978.83;107770;1253;61882;-77
2023/01/21 02:24:36;;;;;;;38.30;21.20;;;;;;;-1.63;93.80;101982.55;107786;1258;60570;-76
2023/01/21 02:27:42;;;;;;;40.30;22.10;;;;;;;-1.57;93.72;101989.77;108001;1254;72966;-75
2023/01/21 02:30:21;;;;;;;37.40;21.00;;;;;;;-1.52;93.72;101993.00;107693;1258;71573;-77
2023/01/21 02:33:09;;;;;;;38.50;20.60;;;;;;;-1.45;93.48;101992.04;107658;1254;72800;-77
2023/01/21 02:35:48;;;;;;;35.70;20.20;;;;;;;-1.39;93.46;101991.77;107693;1254;63129;-76
2023/01/21 02:38:28;;;;;;;36.10;19.70;;;;;;;-1.32;93.61;101995.80;107731;1253;61125;-76
2023/01/21 02:41:30;;;;;;;38.60;19.80;;;;;;;-1.25;93.52;102000.38;107677;1253;72439;-77
2023/01/21 02:44:21;;;;;;;37.40;20.40;;;;;;;-1.18;93.29;101999.91;107815;1255;69896;-75
2023/01/21 02:46:55;;;;;;;36.20;19.50;;;;;;;-1.14;93.12;102003.00;107774;1254;73964;-76
2023/01/21 02:49:39;;;;;;;37.00;20.40;;;;;;;-1.08;93.22;102004.50;107824;1254;60827;-75
2023/01/21 02:52:07;;;;;;;36.50;20.10;;;;;;;-1.03;93.12;102002.17;107602;1258;60371;-76
2023/01/21 02:54:40;;;;;;;36.00;20.00;;;;;;;-0.96;93.23;102005.86;107404;1258;73554;-75
2023/01/21 02:57:10;;;;;;;36.20;20.10;;;;;;;-0.89;93.24;102009.55;107906;1253;70170;-75
2023/01/21 02:59:41;;;;;;;35.60;20.20;;;;;;;-0.82;93.09;102011.15;107627;1253;73027;-75
2023/01/21 03:02:37;;;;;;;33.50;19.40;;;;;;;-0.77;92.81;102011.30;107585;1259;61089;-75
2023/01/21 03:05:16;;;;;;;35.40;19.40;;;;;;;-0.71;92.80;102012.41;107684;1254;61576;-76
2023/01/21 03:07:53;;;;;;;36.30;20.30;;;;;;;-0.64;92.84;102011.75;107829;1254;72705;-75
2023/01/21 03:10:41;;;;;;;36.30;19.90;;;;;;;-0.59;92.64;102019.13;107821;1254;72347;-75
2023/01/21 03:19:10;;;;;;;34.70;19.80;;;;;;;-0.55;91.66;102030.09;107542;1254;60423;-76
2023/01/21 03:21:37;;;;;;;32.60;19.40;;;;;;;-0.55;91.75;102031.27;107665;1254;72635;-76
2023/01/21 03:24:05;;;;;;;37.60;20.50;;;;;;;-0.50;92.02;102032.30;107604;1257;69710;-76
2023/01/21 03:26:37;;;;;;;31.70;18.60;;;;;;;-0.47;91.84;102034.26;107884;1254;71649;-76
2023/01/21 03:29:10;;;;;;;32.80;19.40;;;;;;;-0.45;91.85;102035.87;107569;1254;61721;-75
2023/01/21 03:31:39;;;;;;;31.40;18.40;;;;;;;-0.41;91.92;102028.88;107645;1257;60454;-75
2023/01/21 03:34:10;;;;;;;32.90;19.30;;;;;;;-0.37;91.65;102025.10;107571;1253;74484;-77
2023/01/21 03:36:48;;;;;;;34.40;19.10;;;;;;;-0.36;91.52;102029.71;107407;1257;70169;-75
2023/01/21 03:39:36;;;;;;;33.20;18.80;;;;;;;-0.33;91.57;102032.73;107763;1254;71502;-76
2023/01/21 03:42:03;;;;;;;33.20;18.10;;;;;;;-0.32;91.29;102027.80;108010;1254;60569;-75
2023/01/21 03:44:30;;;;;;;31.10;17.80;;;;;;;-0.32;91.14;102030.09;108067;1254;60757;-75
2023/01/21 03:47:00;;;;;;;32.00;18.20;;;;;;;-0.35;90.83;102027.61;107646;1254;286560;-76
2023/01/21 03:49:37;;;;;;;33.60;18.70;;;;;;;-0.39;90.84;102025.19;107781;1254;71717;-76
2023/01/21 03:52:05;;;;;;;30.60;18.10;;;;;;;-0.42;90.86;102027.20;107755;1254;71165;-75
2023/01/21 03:54:32;;;;;;;32.80;18.40;;;;;;;-0.44;90.98;102029.02;107776;1254;61310;-75
2023/01/21 03:56:59;;;;;;;33.50;18.30;;;;;;;-0.46;90.97;102031.39;107585;1254;60378;-76
2023/01/21 03:59:26;;;;;;;34.00;18.70;;;;;;;-0.42;91.40;102030.54;107603;1254;74165;-75
2023/01/21 04:01:53;;;;;;;32.60;19.20;;;;;;;-0.36;91.48;102032.52;108223;1254;72151;-76
2023/01/21 04:04:20;;;;;;;33.90;19.20;;;;;;;-0.32;91.43;102030.06;107913;1254;71492;-76
2023/01/21 04:06:48;;;;;;;31.30;17.70;;;;;;;-0.30;90.95;102033.46;107423;1254;60655;-75
2023/01/21 04:09:15;;;;;;;34.60;19.40;;;;;;;-0.33;90.85;102034.12;107586;1258;59238;-78
2023/01/21 04:11:42;;;;;;;33.10;19.10;;;;;;;-0.34;90.94;102032.59;107716;1254;71636;-75
2023/01/21 04:14:09;;;;;;;32.70;18.60;;;;;;;-0.34;90.88;102030.53;107589;1254;71112;-75
2023/01/21 04:16:36;;;;;;;35.40;18.80;;;;;;;-0.34;90.79;102033.46;107848;1254;71423;-75
2023/01/21 04:19:04;;;;;;;32.30;18.50;;;;;;;-0.34;90.91;102037.48;107980;1254;60141;-75
2023/01/21 04:21:31;;;;;;;30.80;18.30;;;;;;;-0.33;91.03;102034.48;107729;1253;60410;-75
2023/01/21 04:23:58;;;;;;;32.70;18.10;;;;;;;-0.32;90.79;102037.73;107754;1254;74196;-75
2023/01/21 04:26:24;;;;;;;29.60;17.40;;;;;;;-0.32;90.92;102038.41;107948;1254;71504;-76
2023/01/21 04:28:52;;;;;;;30.40;17.80;;;;;;;-0.33;90.86;102041.39;107861;1255;73246;-76
2023/01/21 04:31:19;;;;;;;32.40;18.40;;;;;;;-0.32;90.88;102039.98;107942;1254;59960;-76
2023/01/21 04:33:46;;;;;;;33.80;18.30;;;;;;;-0.32;90.96;102040.13;107929;1254;60413;-76
2023/01/21 04:36:12;;;;;;;31.50;18.20;;;;;;;-0.35;90.69;102041.49;107593;1253;72629;-75
2023/01/21 04:38:40;;;;;;;30.30;17.90;;;;;;;-0.38;90.78;102044.61;108223;1254;73349;-74
2023/01/21 04:41:07;;;;;;;29.10;17.90;;;;;;;-0.42;90.67;102040.25;108467;1254;72560;-75
2023/01/21 04:43:34;;;;;;;31.40;18.60;;;;;;;-0.45;90.86;102048.36;107744;1257;59968;-76
2023/01/21 04:46:00;;;;;;;31.40;17.70;;;;;;;-0.44;91.07;102045.58;108126;1254;60649;-76
2023/01/21 04:48:28;;;;;;;30.90;17.60;;;;;;;-0.46;91.04;102051.70;108388;1255;73786;-76
2023/01/21 04:50:55;;;;;;;32.10;17.90;;;;;;;-0.46;91.18;102052.58;108134;1254;68633;-76
2023/01/21 04:53:22;;;;;;;31.70;17.80;;;;;;;-0.44;91.27;102049.21;108373;1256;70802;-76
2023/01/21 04:55:52;;;;;;;29.90;17.30;;;;;;;-0.42;91.32;102052.04;108243;1253;60273;-76
2023/01/21 04:58:20;;;;;;;30.90;17.30;;;;;;;-0.41;91.24;102059.99;107819;1254;60515;-76
2023/01/21 05:00:47;;;;;;;32.80;18.60;;;;;;;-0.40;91.19;102063.46;108080;1254;74107;-75
2023/01/21 05:03:14;;;;;;;31.40;18.60;;;;;;;-0.38;91.08;102067.21;108113;1254;69675;-75
2023/01/21 05:05:41;;;;;;;31.20;18.20;;;;;;;-0.37;91.15;102073.42;108283;1254;72568;-76
2023/01/21 05:08:08;;;;;;;30.80;17.60;;;;;;;-0.36;91.24;102073.86;108115;1254;60882;-74
2023/01/21 05:10:35;;;;;;;29.30;17.60;;;;;;;-0.35;91.19;102074.38;108221;1256;60179;-75
2023/01/21 05:13:02;;;;;;;30.80;17.40;;;;;;;-0.37;91.19;102074.98;108005;1254;73392;-75
2023/01/21 05:15:30;;;;;;;29.40;17.10;;;;;;;-0.37;91.08;102069.43;107570;1253;71065;-77
2023/01/21 05:17:59;;;;;;;30.10;17.90;;;;;;;-0.36;91.13;102071.80;107548;1254;70415;-75
2023/01/21 05:20:26;;;;;;;29.10;16.90;;;;;;;-0.35;91.23;102073.65;107951;1254;60386;-74
2023/01/21 05:22:52;;;;;;;28.10;17.10;;;;;;;-0.35;91.11;102074.34;107857;1253;60355;-77
2023/01/21 05:25:20;;;;;;;30.00;17.60;;;;;;;-0.32;91.13;102080.14;107766;1253;73217;-77
2023/01/21 05:27:51;;;;;;;29.40;16.90;;;;;;;-0.28;91.49;102083.04;107762;1256;72972;-76
2023/01/21 05:30:18;;;;;;;31.60;17.90;;;;;;;-0.24;91.29;102082.86;107840;1254;72313;-76
2023/01/21 05:32:49;;;;;;;28.80;17.00;;;;;;;-0.22;91.01;102085.23;107703;1254;61667;-73
2023/01/21 05:35:17;;;;;;;29.20;17.70;;;;;;;-0.21;90.82;102088.14;107902;1254;60375;-76
2023/01/21 05:37:46;;;;;;;31.40;17.60;;;;;;;-0.19;90.78;102090.33;108029;1255;73899;-77
2023/01/21 05:40:15;;;;;;;29.30;16.60;;;;;;;-0.19;90.79;102089.25;107734;1255;71280;-77
2023/01/21 05:42:43;;;;;;;29.60;17.40;;;;;;;-0.19;90.71;102094.49;107884;1254;71455;-74
2023/01/21 05:45:11;;;;;;;29.40;17.60;;;;;;;-0.18;90.67;102096.53;107660;1254;60944;-75
2023/01/21 05:47:38;;;;;;;26.80;16.40;;;;;;;-0.16;90.77;102098.17;107954;1253;60429;-76
2023/01/21 05:50:15;;;;;;;30.90;17.60;;;;;;;-0.18;90.60;102101.23;107872;1253;73868;-76
2023/01/21 05:52:42;;;;;;;29.40;17.20;;;;;;;-0.16;90.94;102100.26;107646;1254;71343;-76
2023/01/21 05:55:09;;;;;;;28.80;17.20;;;;;;;-0.12;91.00;102103.20;107461;1254;72861;-76
2023/01/21 05:57:36;;;;;;;29.00;16.30;;;;;;;-0.11;90.73;102107.66;107560;1254;60214;-75
2023/01/21 06:00:04;;;;;;;31.40;17.60;;;;;;;-0.12;90.57;102105.45;107728;1258;60384;-75
2023/01/21 06:02:31;;;;;;;27.80;17.20;;;;;;;-0.12;90.61;102110.31;107717;1253;74006;-76
2023/01/21 06:04:58;;;;;;;30.30;16.80;;;;;;;-0.12;90.58;102111.20;107876;1254;71633;-74
2023/01/21 06:07:25;;;;;;;31.00;18.30;;;;;;;-0.13;90.53;102111.56;107641;1254;71497;-76
2023/01/21 06:09:52;;;;;;;31.40;18.00;;;;;;;-0.11;90.65;102110.94;107875;1254;59908;-76
2023/01/21 06:12:19;;;;;;;29.90;17.20;;;;;;;-0.08;90.77;102113.81;107757;1253;59833;-76
2023/01/21 06:14:45;;;;;;;30.20;17.50;;;;;;;-0.03;90.77;102119.84;107737;1254;74743;-75
2023/01/21 06:17:12;;;;;;;30.90;17.30;;;;;;;0.01;90.75;102128.70;107809;1254;71308;-75
2023/01/21 06:19:39;;;;;;;28.90;16.80;;;;;;;0.03;90.56;102130.36;107738;1254;72602;-75
2023/01/21 06:22:06;;;;;;;28.10;15.80;;;;;;;0.02;90.40;102133.00;107643;1254;62106;-76
2023/01/21 06:24:34;;;;;;;31.10;18.10;;;;;;;0.01;90.22;102132.55;107861;1254;60685;-76
2023/01/21 06:27:00;;;;;;;30.20;17.30;;;;;;;-0.04;90.18;102137.09;107807;1256;73926;-75
2023/01/21 06:29:28;;;;;;;29.50;17.20;;;;;;;-0.08;90.20;102146.98;107836;1254;70593;-75
2023/01/21 06:31:55;;;;;;;28.20;16.90;;;;;;;-0.11;90.27;102147.14;107556;1254;72013;-76
2023/01/21 06:34:22;;;;;;;29.60;17.60;;;;;;;-0.12;90.47;102153.95;107661;1254;61004;-76
2023/01/21 06:36:49;;;;;;;27.00;15.70;;;;;;;-0.12;90.50;102158.33;107613;1253;59311;-76
2023/01/21 06:39:16;;;;;;;26.30;15.20;;;;;;;-0.19;90.38;102164.92;107581;1253;72887;-76
2023/01/21 06:41:44;;;;;;;28.30;15.30;;;;;;;-0.25;90.47;102172.48;107783;1254;71202;-75
2023/01/21 06:44:11;;;;;;;27.10;16.30;;;;;;;-0.28;90.75;102176.03;107786;1254;71492;-76
2023/01/21 06:46:38;;;;;;;26.60;14.80;;;;;;;-0.26;90.87;102179.48;107835;1254;62204;-76
2023/01/21 06:49:11;;;;;;;26.70;15.10;;;;;;;-0.26;90.82;102183.31;107784;1254;60410;-76
2023/01/21 06:51:38;;;;;;;24.60;14.70;;;;;;;-0.26;90.84;102188.69;107550;1254;73851;-76
2023/01/21 06:54:05;;;;;;;25.40;15.20;;;;;;;-0.25;90.85;102198.89;107619;1254;70188;-77
2023/01/21 06:56:32;;;;;;;24.60;14.20;;;;;;;-0.23;90.88;102201.23;107882;1254;72616;-77
2023/01/21 06:58:59;;;;;;;24.80;14.80;;;;;;;-0.21;90.97;102201.14;107428;1254;60451;-76
2023/01/21 07:01:26;;;;;;;25.20;14.40;;;;;;;-0.19;90.86;102204.20;107282;1254;60572;-76
2023/01/21 07:03:53;;;;;;;26.40;15.40;;;;;;;-0.18;90.72;102206.60;107660;1253;72743;-75
2023/01/21 07:06:24;;;;;;;25.30;15.70;;;;;;;-0.15;90.91;102212.91;107494;1255;70250;-75
2023/01/21 07:08:52;;;;;;;26.10;15.00;;;;;;;-0.13;90.91;102217.28;107537;1254;73358;-76
2023/01/21 07:11:18;;;;;;;28.10;15.00;;;;;;;-0.12;90.74;102212.72;107218;1254;61967;-76
2023/01/21 07:13:46;;;;;;;23.30;14.20;;;;;;;-0.11;90.73;102214.76;107394;1254;59263;-77
2023/01/21 07:16:15;;;;;;;27.20;14.70;;;;;;;-0.09;90.77;102214.71;107617;1254;72703;-76
2023/01/21 07:18:49;;;;;;;28.30;14.60;;;;;;;-0.09;90.60;102218.85;107715;1254;70280;-76
2023/01/21 07:21:16;;;;;;;25.30;14.80;;;;;;;-0.08;90.61;102222.45;107654;1253;71456;-76
2023/01/21 07:23:43;;;;;;;25.80;14.10;;;;;;;-0.06;90.67;102220.82;107329;1253;62396;-76
2023/01/21 07:26:10;;;;;;;24.40;14.50;;;;;;;-0.06;90.47;102228.13;107361;1254;60316;-75
2023/01/21 07:28:37;;;;;;;27.10;15.10;;;;;;;-0.05;90.63;102226.34;107359;1255;72430;-76
2023/01/21 07:31:04;;;;;;;24.90;14.60;;;;;;;-0.04;90.55;102225.80;107575;1254;70016;-77
2023/01/21 07:33:32;;;;;;;25.40;14.70;;;;;;;-0.05;90.66;102227.88;107386;1253;71757;-75
2023/01/21 07:36:07;;;;;;;23.10;13.90;;;;;;;-0.03;90.51;102228.16;107880;1254;62801;-76
2023/01/21 07:38:35;;;;;;;26.20;14.80;;;;;;;-0.03;90.46;102232.85;107335;1254;61868;-76
2023/01/21 07:41:02;;;;;;;25.80;14.80;;;;;;;-0.03;90.49;102234.75;107283;1255;75445;-75
2023/01/21 07:43:29;;;;;;;26.30;15.00;;;;;;;-0.01;90.53;102236.77;107468;1253;70894;-75
2023/01/21 07:45:58;;;;;;;24.20;14.00;;;;;;;-0.04;90.59;102231.36;107595;1254;72765;-77
2023/01/21 07:48:25;;;;;;;25.60;15.20;;;;;;;-0.00;90.55;102239.02;106946;1254;60914;-76
2023/01/21 07:50:57;;;;;;;25.20;14.60;;;;;;;0.03;90.68;102243.74;107710;1253;60394;-76
2023/01/21 07:53:24;;;;;;;26.00;15.50;;;;;;;0.06;90.68;102246.21;107622;1253;73243;-75
2023/01/21 07:55:52;;;;;;;29.00;16.40;;;;;;;0.02;90.47;102246.93;107470;1254;70956;-77
2023/01/21 07:58:18;;;;;;;30.50;16.60;;;;;;;-0.01;90.32;102244.45;107433;1255;73421;-75
2023/01/21 08:00:45;;;;;;;29.00;17.00;;;;;;;-0.03;90.45;102248.84;107676;1253;62030;-77
2023/01/21 08:03:12;;;;;;;28.60;16.30;;;;;;;0.01;90.71;102253.21;107608;1253;61059;-74
2023/01/21 08:05:40;;;;;;;28.80;16.50;;;;;;;0.07;91.12;102260.27;107728;1255;72578;-75
2023/01/21 08:08:07;;;;;;;28.90;16.40;;;;;;;0.13;90.88;102265.21;107754;1254;72179;-74
2023/01/21 08:10:33;;;;;;;28.20;15.40;;;;;;;0.18;90.84;102267.59;107416;1254;70667;-73
2023/01/21 08:13:00;;;;;;;29.00;17.00;;;;;;;0.22;90.60;102272.09;107544;1253;60943;-74
2023/01/21 08:15:27;;;;;;;26.50;15.20;;;;;;;0.25;90.43;102269.36;107607;1254;60629;-73
2023/01/21 08:17:55;;;;;;;28.30;15.70;;;;;;;0.27;90.22;102268.95;107482;1256;72710;-74
2023/01/21 08:20:22;;;;;;;26.40;15.70;;;;;;;0.27;90.18;102268.74;107386;1254;71538;-73
2023/01/21 08:22:49;;;;;;;26.00;15.00;;;;;;;0.29;90.19;102274.73;107497;1253;73317;-75
2023/01/21 08:25:17;;;;;;;28.40;16.10;;;;;;;0.27;89.91;102280.06;107417;1258;60003;-75
2023/01/21 08:27:44;;;;;;;28.80;16.00;;;;;;;0.29;90.15;102282.91;107603;1253;60420;-74
2023/01/21 08:30:12;;;;;;;26.50;15.40;;;;;;;0.33;90.23;102283.98;107855;1253;73087;-73
2023/01/21 08:32:39;;;;;;;25.20;14.50;;;;;;;0.33;90.08;102290.21;107475;1253;70440;-74
2023/01/21 08:35:06;;;;;;;26.50;15.70;;;;;;;0.30;90.05;102291.08;107528;1254;71173;-74
2023/01/21 08:37:35;;;;;;;27.00;15.00;;;;;;;0.28;90.07;102287.19;107756;1255;60482;-74
2023/01/21 08:40:02;;;;;;;26.90;15.00;;;;;;;0.27;90.14;102290.66;107652;1253;60746;-73
2023/01/21 08:42:29;;;;;;;26.80;15.50;;;;;;;0.31;90.45;102295.20;107207;1254;73586;-74
2023/01/21 08:44:56;;;;;;;25.00;15.30;;;;;;;0.34;90.33;102296.29;107448;1254;71173;-75
2023/01/21 08:47:23;;;;;;;23.50;14.40;;;;;;;0.34;90.23;102301.50;108372;1253;70489;-74
2023/01/21 08:49:49;;;;;;;25.50;15.10;;;;;;;0.33;90.16;102301.55;109128;1255;61228;-74
2023/01/21 08:52:16;;;;;;;28.00;15.70;;;;;;;0.33;90.18;102302.74;109056;1255;58949;-74
2023/01/21 08:54:43;;;;;;;26.70;15.40;;;;;;;0.36;90.15;102311.67;108990;1255;72693;-74
2023/01/21 08:57:11;;;;;;;27.20;14.70;;;;;;;0.38;90.24;102314.88;108088;1254;69342;-73
2023/01/21 08:59:38;;;;;;;24.60;14.30;;;;;;;0.37;90.07;102318.05;106725;1258;71144;-74
2023/01/21 09:02:07;;;;;;;26.20;16.20;;;;;;;0.38;90.12;102320.48;107125;1255;60444;-74
2023/01/21 09:04:33;;;;;;;25.30;14.20;;;;;;;0.41;90.12;102325.74;106566;1254;60813;-73
2023/01/21 09:07:00;;;;;;;26.20;14.60;;;;;;;0.43;90.48;102323.39;107093;1255;72334;-75
2023/01/21 09:09:27;;;;;;;27.90;16.30;;;;;;;0.45;90.61;102317.22;106923;1254;69534;-74
2023/01/21 09:11:54;;;;;;;31.70;17.90;;;;;;;0.43;90.79;102312.61;106863;1254;70504;-73
2023/01/21 09:14:21;;;;;;;26.90;15.20;;;;;;;0.44;90.65;102312.19;106833;1254;60570;-75
2023/01/21 09:16:49;;;;;;;28.90;15.30;;;;;;;0.42;90.83;102318.91;106771;1254;60440;-73
2023/01/21 09:19:16;;;;;;;26.60;14.90;;;;;;;0.43;90.80;102319.58;106707;1254;73236;-73
2023/01/21 09:21:43;;;;;;;25.60;14.00;;;;;;;0.44;90.73;102319.88;106627;1255;71093;-74
2023/01/21 09:24:10;;;;;;;25.30;14.90;;;;;;;0.43;90.89;102323.38;106780;1254;71404;-73
2023/01/21 09:26:42;;;;;;;24.50;15.10;;;;;;;0.43;91.03;102317.45;107344;1253;61602;-74
2023/01/21 09:29:10;;;;;;;25.30;15.10;;;;;;;0.45;91.20;102320.86;107119;1254;60962;-74
2023/01/21 09:31:37;;;;;;;23.90;13.90;;;;;;;0.47;90.91;102321.98;106602;1253;72332;-73
2023/01/21 09:34:04;;;;;;;22.00;13.00;;;;;;;0.49;91.74;102321.21;107570;1253;70300;-73
2023/01/21 09:36:33;;;;;;;24.30;14.00;;;;;;;0.53;91.42;102324.34;106647;1253;73913;-74
2023/01/21 09:39:00;;;;;;;24.60;13.80;;;;;;;0.52;91.04;102322.27;106655;1253;60449;-74
2023/01/21 09:41:33;;;;;;;25.40;13.80;;;;;;;0.51;91.16;102322.30;107133;1253;60385;-73
2023/01/21 09:44:02;;;;;;;24.80;14.20;;;;;;;0.52;91.28;102321.95;106957;1253;74280;-73
2023/01/21 09:46:45;;;;;;;24.60;14.10;;;;;;;0.54;91.47;102326.90;106872;1253;72453;-74
2023/01/21 09:49:21;;;;;;;24.40;14.10;;;;;;;0.57;91.50;102329.16;107131;1253;71514;-73
2023/01/21 09:52:00;;;;;;;24.40;13.90;;;;;;;0.60;91.19;102331.15;107227;1254;60652;-73
2023/01/21 09:54:31;;;;;;;23.50;13.70;;;;;;;0.65;91.25;102336.48;106944;1257;59459;-74
2023/01/21 09:57:18;;;;;;;23.90;13.30;;;;;;;0.67;91.03;102337.61;106956;1253;72421;-75
2023/01/21 10:00:23;;;;;;;24.70;14.60;;;;;;;0.69;91.20;102339.59;106609;1256;71182;-73
2023/01/21 10:03:08;;;;;;;24.40;14.50;;;;;;;0.73;90.99;102340.66;107028;1254;71659;-74
2023/01/21 10:05:44;;;;;;;22.70;13.60;;;;;;;0.75;90.99;102342.29;106774;1258;60900;-74
2023/01/21 10:08:40;;;;;;;23.00;13.30;;;;;;;0.75;90.72;102339.83;106829;1254;60919;-73
2023/01/21 10:11:23;;;;;;;22.90;13.20;;;;;;;0.76;90.37;102343.29;106748;1257;73699;-74
2023/01/21 10:14:45;;;;;;;22.80;13.80;;;;;;;0.78;90.27;102344.92;106818;1254;71166;-74
2023/01/21 10:17:52;;;;;;;21.90;12.70;;;;;;;0.83;90.05;102346.79;106756;1254;71755;-74
2023/01/21 10:20:27;;;;;;;22.30;12.40;;;;;;;0.81;89.55;102344.95;106301;1261;62676;-73
2023/01/21 10:23:13;;;;;;;24.50;13.20;;;;;;;0.87;89.66;102346.27;106230;1261;61606;-74
2023/01/21 10:25:40;;;;;;;23.10;13.60;;;;;;;0.91;89.56;102346.45;106570;1254;72943;-74
2023/01/21 10:28:18;;;;;;;20.30;12.10;;;;;;;0.92;89.24;102346.73;106808;1254;70024;-72
2023/01/21 10:30:49;;;;;;;24.10;13.90;;;;;;;0.93;89.39;102342.69;106741;1253;71562;-72
2023/01/21 10:33:22;;;;;;;20.00;12.20;;;;;;;0.96;89.56;102343.41;106783;1253;59946;-74
2023/01/21 10:36:18;;;;;;;21.90;13.20;;;;;;;0.97;89.41;102339.90;106943;1253;60419;-73
2023/01/21 10:39:00;;;;;;;23.20;12.80;;;;;;;1.01;89.42;102335.54;107307;1255;72387;-74
2023/01/21 10:41:55;;;;;;;20.90;13.00;;;;;;;1.05;89.32;102335.48;106765;1253;70888;-74
2023/01/21 10:44:45;;;;;;;21.50;13.20;;;;;;;1.12;89.07;102336.55;106698;1254;71325;-73
2023/01/21 10:47:34;;;;;;;21.20;12.20;;;;;;;1.14;88.64;102334.71;106686;1253;60973;-74
2023/01/21 10:50:29;;;;;;;21.80;13.00;;;;;;;1.14;88.25;102334.89;106847;1253;60938;-73
2023/01/21 10:53:05;;;;;;;23.10;12.70;;;;;;;1.15;88.33;102330.14;106672;1255;72666;-73
2023/01/21 10:56:08;;;;;;;21.70;12.60;;;;;;;1.20;88.05;102329.19;107015;1253;71539;-74
2023/01/21 10:58:45;;;;;;;23.20;13.00;;;;;;;1.33;88.24;102328.78;106860;1253;72573;-73
2023/01/21 11:01:27;;;;;;;22.60;13.50;;;;;;;1.44;88.00;102331.67;107090;1253;60438;-74
2023/01/21 11:03:58;;;;;;;20.10;11.90;;;;;;;1.52;87.10;102333.40;106561;1253;60478;-73
2023/01/21 11:06:27;;;;;;;22.40;12.60;;;;;;;1.60;87.15;102332.98;106756;1253;72466;-73
2023/01/21 11:08:59;;;;;;;17.50;10.80;;;;;;;1.71;86.24;102333.88;106899;1253;69709;-74
2023/01/21 11:11:31;;;;;;;19.00;11.50;;;;;;;1.75;85.25;102332.06;106754;1253;72524;-74
2023/01/21 11:13:58;;;;;;;21.60;11.80;;;;;;;1.82;85.34;102337.11;106964;1253;60452;-74
2023/01/21 11:16:52;;;;;;;20.00;11.60;;;;;;;1.93;85.48;102338.87;106722;1253;61762;-74
2023/01/21 11:19:25;;;;;;;20.40;11.20;;;;;;;2.00;84.04;102341.99;106658;1253;72644;-76
2023/01/21 11:22:11;;;;;;;19.80;11.30;;;;;;;1.98;83.06;102345.92;106521;1253;71460;-74
2023/01/21 11:24:44;;;;;;;21.90;11.10;;;;;;;2.00;83.63;102343.23;106518;1253;71385;-75
2023/01/21 11:27:30;;;;;;;19.80;10.50;;;;;;;1.96;83.12;102344.60;106867;1258;60362;-74
2023/01/21 11:29:57;;;;;;;22.10;11.30;;;;;;;1.97;83.11;102340.55;106916;1255;61054;-74